Time;durP1;ratioP1;P1;durP2;ratioP2;P2;SDS_P1;SDS_P2;PMS_P1;PMS_P2;Temp;Humidity;BMP_temperature;BMP_pressure;BME280_temperature;BME280_humidity;BME280_pressure;Samples;Min_cycle;Max_cycle;Signal;HPM_P1;HPM_P2
2023/01/20 00:00:07;;;;;;;90.32;50.88;;;;;;;-0.19;100.00;160524.28;5051889;28;20037;-61
2023/01/20 00:02:32;;;;;;;94.05;51.50;;;;;;;-0.14;100.00;160536.28;5052804;28;20013;-63
2023/01/20 00:04:58;;;;;;;93.97;52.88;;;;;;;-0.13;100.00;160539.00;5053062;28;20506;-63
2023/01/20 00:07:23;;;;;;;86.82;54.13;;;;;;;-0.09;100.00;160551.06;5051390;28;20049;-63
2023/01/20 00:09:48;;;;;;;100.47;55.67;;;;;;;-0.12;100.00;160541.69;5053003;28;20025;-62
2023/01/20 00:12:14;;;;;;;105.72;55.13;;;;;;;-0.10;100.00;160547.03;5050977;28;20041;-63
2023/01/20 00:14:39;;;;;;;102.25;53.80;;;;;;;-0.06;100.00;160557.75;5052993;28;20024;-62
2023/01/20 00:17:04;;;;;;;85.60;52.72;;;;;;;-0.07;100.00;160556.44;5051284;28;20500;-62
2023/01/20 00:19:30;;;;;;;93.28;55.67;;;;;;;-0.03;100.00;160567.13;5052827;28;20029;-62
2023/01/20 00:21:55;;;;;;;94.35;53.40;;;;;;;0.02;100.00;160577.88;5051411;28;20084;-62
2023/01/20 00:24:20;;;;;;;105.78;54.58;;;;;;;0.01;100.00;160575.19;5052090;28;20028;-63
2023/01/20 00:26:46;;;;;;;102.95;52.78;;;;;;;-0.02;100.00;160569.81;5050792;28;20045;-63
2023/01/20 00:29:11;;;;;;;109.25;52.50;;;;;;;-0.01;100.00;160572.50;5052188;28;20032;-63
2023/01/20 00:31:36;;;;;;;92.50;55.10;;;;;;;0.04;100.00;160584.56;5051047;28;20049;-63
2023/01/20 00:34:02;;;;;;;102.30;57.55;;;;;;;0.09;100.00;160596.63;5052184;28;20021;-62
2023/01/20 00:36:30;;;;;;;92.00;53.67;;;;;;;0.12;100.00;160604.66;5051220;28;20037;-62
2023/01/20 00:38:56;;;;;;;98.75;55.10;;;;;;;0.14;100.00;160610.00;5052829;28;20089;-62
2023/01/20 00:41:21;;;;;;;94.35;53.58;;;;;;;0.10;100.00;160599.31;5050060;28;20033;-62
2023/01/20 00:43:46;;;;;;;119.18;51.60;;;;;;;0.18;100.00;160619.41;5052582;28;20028;-62
2023/01/20 00:46:12;;;;;;;91.75;52.63;;;;;;;0.15;100.00;160614.03;5050984;28;20051;-62
2023/01/20 00:48:38;;;;;;;85.53;51.72;;;;;;;0.13;100.00;160608.69;5051889;28;20137;-62
2023/01/20 00:51:05;;;;;;;88.93;54.63;;;;;;;0.09;100.00;160597.94;5051039;28;20048;-63
2023/01/20 00:53:30;;;;;;;90.38;53.13;;;;;;;0.11;100.00;160602.00;5051834;28;20037;-63
2023/01/20 00:55:56;;;;;;;88.10;52.67;;;;;;;0.09;100.00;160596.63;5050552;28;20052;-63
2023/01/20 00:58:21;;;;;;;94.40;49.15;;;;;;;0.12;100.00;160604.66;5051916;28;20031;-63
2023/01/20 01:00:49;;;;;;;100.65;52.47;;;;;;;0.10;100.00;160600.63;5050793;28;20041;-65
2023/01/20 01:03:14;;;;;;;92.82;49.80;;;;;;;0.06;100.00;160589.94;5051364;28;20640;-64
2023/01/20 01:05:40;;;;;;;87.65;48.58;;;;;;;0.04;100.00;160583.25;5050780;28;20033;-64
2023/01/20 01:08:05;;;;;;;91.82;51.78;;;;;;;0.10;100.00;160599.31;5051989;28;20446;-64
2023/01/20 01:10:30;;;;;;;100.82;52.35;;;;;;;0.05;100.00;160585.88;5049648;28;20111;-64
2023/01/20 01:12:59;;;;;;;96.63;50.75;;;;;;;-0.01;100.00;160572.50;5052138;28;20506;-64
2023/01/20 01:15:24;;;;;;;92.65;53.13;;;;;;;-0.03;100.00;160567.13;5050299;28;20043;-64
2023/01/20 01:17:51;;;;;;;88.97;48.90;;;;;;;-0.08;100.00;160553.75;5051732;28;20017;-64
2023/01/20 01:20:16;;;;;;;86.60;48.50;;;;;;;-0.11;100.00;160545.69;5049900;28;20032;-63
2023/01/20 01:22:42;;;;;;;99.82;52.97;;;;;;;-0.15;100.00;160534.97;5051798;28;20055;-64
2023/01/20 01:25:07;;;;;;;93.90;51.55;;;;;;;-0.27;100.00;160504.16;5049796;28;20032;-63
2023/01/20 01:27:32;;;;;;;87.63;47.30;;;;;;;-0.36;100.00;160481.41;5051534;28;20111;-64
2023/01/20 01:29:58;;;;;;;85.60;51.63;;;;;;;-0.42;100.00;160465.34;5051528;28;20032;-64
2023/01/20 01:32:23;;;;;;;83.07;48.05;;;;;;;-0.48;100.00;160449.22;5049360;28;20392;-64
2023/01/20 01:34:48;;;;;;;84.45;50.13;;;;;;;-0.46;100.00;160454.59;5051455;28;20029;-64
2023/01/20 01:37:14;;;;;;;95.70;51.67;;;;;;;-0.42;100.00;160463.97;5049806;28;20044;-64
2023/01/20 01:39:39;;;;;;;89.50;47.72;;;;;;;-0.38;100.00;160476.03;5051029;28;20028;-64
2023/01/20 01:42:24;;;;;;;90.72;48.85;;;;;;;-0.27;100.00;160502.84;5050070;28;20059;-64
2023/01/20 01:45:08;;;;;;;88.13;47.30;;;;;;;-0.28;100.00;160500.16;5051478;28;20086;-64
2023/01/20 01:47:34;;;;;;;85.88;54.92;;;;;;;-0.21;100.00;160518.91;5048995;28;20049;-64
2023/01/20 01:49:59;;;;;;;87.93;50.45;;;;;;;-0.26;100.00;160506.84;5051048;28;20063;-64
2023/01/20 01:52:25;;;;;;;66.25;38.22;;;;;;;-0.14;100.00;160536.28;5049389;28;20108;-64
2023/01/20 01:54:51;;;;;;;57.08;31.85;;;;;;;-0.12;100.00;160543.03;5050560;28;20036;-64
2023/01/20 01:57:18;;;;;;;51.00;29.33;;;;;;;-0.14;100.00;160537.66;5049477;28;20040;-64
2023/01/20 01:59:43;;;;;;;45.15;25.90;;;;;;;-0.18;100.00;160528.28;5051280;28;20032;-64
2023/01/20 02:02:09;;;;;;;46.22;29.02;;;;;;;-0.05;100.00;160561.81;5049022;28;20083;-64
2023/01/20 02:04:37;;;;;;;52.42;29.80;;;;;;;-0.05;100.00;160560.44;5050685;28;20025;-64
2023/01/20 02:07:07;;;;;;;43.42;22.67;;;;;;;-0.02;100.00;160569.81;5049455;28;20469;-64
2023/01/20 02:09:33;;;;;;;45.65;26.38;;;;;;;0.08;100.00;160593.94;5051737;28;20059;-63
2023/01/20 02:12:01;;;;;;;45.60;27.42;;;;;;;-0.02;100.00;160569.81;5049315;28;20044;-63
2023/01/20 02:14:34;;;;;;;39.42;22.67;;;;;;;-0.05;100.00;160561.81;5050482;28;20107;-63
2023/01/20 02:17:12;;;;;;;35.72;20.88;;;;;;;-0.10;100.00;160548.38;5049039;28;20132;-63
2023/01/20 02:19:46;;;;;;;26.65;19.02;;;;;;;0.02;100.00;160577.88;5051061;28;20025;-63
2023/01/20 02:22:28;;;;;;;33.20;21.27;;;;;;;0.11;100.00;160602.00;5048852;28;20041;-63
2023/01/20 02:25:05;;;;;;;29.80;19.20;;;;;;;0.11;100.00;160602.00;5050040;28;20027;-63
2023/01/20 02:28:08;;;;;;;29.58;22.38;;;;;;;0.14;100.00;160610.00;5048752;28;20059;-63
2023/01/20 02:30:53;;;;;;;31.40;19.92;;;;;;;0.09;100.00;160597.94;5048248;28;20047;-63
2023/01/20 02:33:36;;;;;;;40.40;23.60;;;;;;;0.14;100.00;160611.38;5050453;28;20047;-63
2023/01/20 02:36:12;;;;;;;30.05;20.60;;;;;;;0.12;100.00;160606.00;5049427;28;20041;-63
2023/01/20 02:38:59;;;;;;;35.20;22.70;;;;;;;0.13;100.00;160608.69;5050232;28;20077;-63
2023/01/20 02:41:30;;;;;;;35.47;24.25;;;;;;;0.16;100.00;160615.41;5048738;28;20124;-64
2023/01/20 02:44:17;;;;;;;34.70;24.73;;;;;;;0.17;100.00;160618.09;5050763;28;20029;-64
2023/01/20 02:47:00;;;;;;;43.78;25.50;;;;;;;0.19;100.00;160623.41;5040680;28;20068;-64
2023/01/20 02:49:32;;;;;;;40.38;24.13;;;;;;;0.16;100.00;160615.41;5050433;28;20484;-63
2023/01/20 02:52:04;;;;;;;43.60;26.33;;;;;;;0.21;100.00;160628.78;5051853;28;20458;-63
2023/01/20 02:54:33;;;;;;;41.00;25.50;;;;;;;0.18;100.00;160620.78;5054108;28;20032;-63
2023/01/20 02:57:02;;;;;;;38.45;26.65;;;;;;;0.19;100.00;160623.41;5052913;28;20079;-63
2023/01/20 02:59:30;;;;;;;;;;;;;;;0.19;100.00;160623.41;5054857;28;20056;-63
2023/01/20 03:02:01;;;;;;;32.80;19.30;;;;;;;0.16;100.00;160615.41;5052543;28;19920;-63
2023/01/20 03:04:31;;;;;;;39.60;30.45;;;;;;;0.19;100.00;160623.41;5054652;28;20028;-63
2023/01/20 03:06:58;;;;;;;37.85;28.08;;;;;;;0.21;100.00;160628.78;5052883;28;20071;-63
2023/01/20 03:09:31;;;;;;;35.67;25.50;;;;;;;0.23;100.00;160632.78;5053637;28;20029;-63
2023/01/20 03:12:03;;;;;;;44.70;29.92;;;;;;;0.24;100.00;160636.84;5052303;28;20048;-63
2023/01/20 03:14:28;;;;;;;37.28;29.40;;;;;;;0.21;100.00;160628.78;5053767;28;20617;-63
2023/01/20 03:16:54;;;;;;;46.33;29.92;;;;;;;0.22;100.00;160631.47;5052454;28;20048;-63
2023/01/20 03:19:19;;;;;;;39.08;25.23;;;;;;;0.25;100.00;160639.53;5054034;28;20028;-64
2023/01/20 03:21:45;;;;;;;37.53;27.55;;;;;;;0.26;100.00;160640.84;5052508;28;20041;-63
2023/01/20 03:24:10;;;;;;;44.30;31.00;;;;;;;0.28;100.00;160647.53;5053677;28;20021;-63
2023/01/20 03:26:37;;;;;;;47.97;30.85;;;;;;;0.27;100.00;160644.84;5052391;28;20047;-63
2023/01/20 03:29:07;;;;;;;47.35;30.17;;;;;;;0.21;100.00;160628.78;5054203;28;20020;-62
2023/01/20 03:31:55;;;;;;;43.17;30.17;;;;;;;0.26;100.00;160642.16;5051743;28;20083;-62
2023/01/20 03:34:23;;;;;;;47.43;28.73;;;;;;;0.20;100.00;160626.09;5053584;28;20127;-62
2023/01/20 03:36:51;;;;;;;40.00;27.40;;;;;;;0.24;100.00;160636.84;5052081;28;20466;-62
2023/01/20 03:39:17;;;;;;;43.83;29.45;;;;;;;0.30;100.00;160652.91;5053665;28;21016;-62
2023/01/20 03:42:07;;;;;;;46.70;31.15;;;;;;;0.19;100.00;160622.09;5052024;28;20047;-62
2023/01/20 03:44:54;;;;;;;55.20;32.60;;;;;;;0.06;100.00;160588.56;5053417;28;20037;-62
2023/01/20 03:47:51;;;;;;;50.33;33.10;;;;;;;0.15;100.00;160614.03;5052011;28;20040;-62
2023/01/20 03:50:41;;;;;;;56.00;34.63;;;;;;;0.10;100.00;160599.31;5051871;28;20024;-62
2023/01/20 03:53:17;;;;;;;62.17;38.45;;;;;;;0.18;100.00;160619.41;5053086;28;20404;-62
2023/01/20 03:55:50;;;;;;;63.15;34.72;;;;;;;0.14;100.00;160610.00;5052253;28;20064;-62
2023/01/20 03:58:20;;;;;;;52.60;35.65;;;;;;;0.19;100.00;160623.41;5059013;28;20427;-63
2023/01/20 04:00:49;;;;;;;56.33;36.33;;;;;;;0.19;100.00;160623.41;5051632;28;20187;-62
2023/01/20 04:03:35;;;;;;;;;;;;;;;0.17;100.00;160618.09;5053805;28;20024;-62
2023/01/20 04:06:03;;;;;;;70.80;37.67;;;;;;;0.22;100.00;160631.47;5051868;28;20000;-62
2023/01/20 04:08:33;;;;;;;53.75;36.80;;;;;;;0.23;100.00;160634.16;5052452;28;20137;-62
2023/01/20 04:11:03;;;;;;;57.22;36.80;;;;;;;0.27;100.00;160644.84;5051660;28;20126;-62
2023/01/20 04:13:28;;;;;;;58.70;34.17;;;;;;;0.25;100.00;160639.53;5052816;28;20037;-62
2023/01/20 04:15:56;;;;;;;56.58;36.70;;;;;;;0.26;100.00;160642.16;5051492;28;20045;-62
2023/01/20 04:18:22;;;;;;;45.05;30.90;;;;;;;0.24;100.00;160636.84;5052606;28;20483;-62
2023/01/20 04:20:52;;;;;;;59.47;35.78;;;;;;;0.26;100.00;160642.16;5051354;28;20480;-62
2023/01/20 04:23:28;;;;;;;54.67;32.88;;;;;;;0.33;100.00;160658.28;5052501;28;20024;-62
2023/01/20 04:25:53;;;;;;;56.35;36.92;;;;;;;0.27;100.00;160643.53;5051910;28;20403;-62
2023/01/20 04:28:18;;;;;;;61.13;38.45;;;;;;;0.30;100.00;160652.91;5052508;28;20025;-63
2023/01/20 04:30:44;;;;;;;53.88;34.65;;;;;;;0.31;100.00;160654.25;5050882;28;20389;-63
2023/01/20 04:33:09;;;;;;;63.08;38.75;;;;;;;0.24;100.00;160636.84;5052834;28;20087;-63
2023/01/20 04:35:34;;;;;;;52.92;34.67;;;;;;;0.29;100.00;160648.91;5051336;28;20041;-64
2023/01/20 04:38:00;;;;;;;47.00;33.67;;;;;;;0.31;100.00;160655.59;5052465;28;20024;-64
2023/01/20 04:40:26;;;;;;;57.35;34.35;;;;;;;0.26;100.00;160642.16;5051147;28;20039;-63
2023/01/20 04:42:51;;;;;;;69.55;35.35;;;;;;;0.27;100.00;160644.84;5052601;28;20088;-63
2023/01/20 04:45:17;;;;;;;56.40;34.90;;;;;;;0.31;100.00;160655.59;5050545;28;20060;-63
2023/01/20 04:47:42;;;;;;;56.03;34.80;;;;;;;0.29;100.00;160650.22;5052859;28;20024;-63
2023/01/20 04:50:09;;;;;;;58.17;33.10;;;;;;;0.30;100.00;160652.91;5051095;28;20028;-62
2023/01/20 04:52:35;;;;;;;54.08;34.05;;;;;;;0.30;100.00;160652.91;5051928;28;20041;-63
2023/01/20 04:55:00;;;;;;;59.17;35.35;;;;;;;0.26;100.00;160642.16;5052489;28;20136;-64
2023/01/20 04:57:26;;;;;;;57.10;34.97;;;;;;;0.27;100.00;160643.53;5050396;28;20036;-63
2023/01/20 04:59:51;;;;;;;48.60;31.05;;;;;;;0.26;100.00;160642.16;5052036;28;20657;-63
2023/01/20 05:02:16;;;;;;;49.58;33.65;;;;;;;0.26;100.00;160642.16;5050619;28;20084;-63
2023/01/20 05:04:42;;;;;;;52.60;31.60;;;;;;;0.25;100.00;160639.53;5057234;28;20091;-63
2023/01/20 05:07:08;;;;;;;49.55;35.00;;;;;;;0.27;100.00;160644.84;5070334;28;20100;-64
2023/01/20 05:09:33;;;;;;;57.38;35.88;;;;;;;0.24;100.00;160635.47;5062690;28;20044;-63
2023/01/20 05:11:58;;;;;;;54.42;33.08;;;;;;;0.23;100.00;160634.16;5050379;28;20581;-63
2023/01/20 05:14:24;;;;;;;57.47;35.03;;;;;;;0.22;100.00;160631.47;5060973;28;20020;-63
2023/01/20 05:16:49;;;;;;;54.80;33.67;;;;;;;0.21;100.00;160628.78;5050540;28;20091;-63
2023/01/20 05:19:14;;;;;;;48.22;31.35;;;;;;;0.20;100.00;160626.09;5051779;28;20032;-63
2023/01/20 05:21:41;;;;;;;47.92;29.73;;;;;;;0.19;100.00;160623.41;5050209;28;20484;-63
2023/01/20 05:24:07;;;;;;;54.10;33.80;;;;;;;0.25;100.00;160639.53;5061966;28;20028;-63
2023/01/20 05:26:32;;;;;;;47.22;30.20;;;;;;;0.24;100.00;160635.47;5062215;28;20051;-63
2023/01/20 05:28:58;;;;;;;49.28;29.67;;;;;;;0.25;100.00;160639.53;5053169;28;20396;-63
2023/01/20 05:31:23;;;;;;;42.47;30.13;;;;;;;0.28;100.00;160646.22;5049770;28;20037;-62
2023/01/20 05:33:49;;;;;;;45.90;31.63;;;;;;;0.31;100.00;160654.25;5051667;28;20024;-62
2023/01/20 05:36:14;;;;;;;47.70;30.75;;;;;;;0.28;100.00;160646.22;5049669;28;20037;-62
2023/01/20 05:38:39;;;;;;;44.25;30.38;;;;;;;0.30;100.00;160652.91;5051094;28;20029;-62
2023/01/20 05:41:07;;;;;;;46.90;28.90;;;;;;;0.24;100.00;160636.84;5049992;28;20037;-61
2023/01/20 05:43:32;;;;;;;49.88;34.90;;;;;;;0.33;100.00;160658.28;5050503;28;20288;-61
2023/01/20 05:45:58;;;;;;;43.70;27.65;;;;;;;0.28;100.00;160647.53;5049915;28;20641;-61
2023/01/20 05:48:24;;;;;;;44.35;30.40;;;;;;;0.21;100.00;160628.78;5051172;28;20051;-62
2023/01/20 05:50:49;;;;;;;57.42;33.53;;;;;;;0.27;100.00;160644.84;5042985;28;20045;-62
2023/01/20 05:53:14;;;;;;;43.80;28.98;;;;;;;0.23;100.00;160634.16;5031160;28;20405;-62
2023/01/20 05:55:40;;;;;;;39.28;25.40;;;;;;;0.21;100.00;160627.47;5035194;28;20137;-62
2023/01/20 05:58:06;;;;;;;49.00;30.25;;;;;;;0.23;100.00;160632.78;5050454;28;20036;-63
2023/01/20 06:00:32;;;;;;;43.63;27.90;;;;;;;0.21;100.00;160628.78;5049426;28;20048;-63
2023/01/20 06:02:58;;;;;;;48.20;29.30;;;;;;;0.26;100.00;160642.16;5061099;28;20027;-62
2023/01/20 06:05:24;;;;;;;47.97;31.20;;;;;;;0.28;100.00;160647.53;5060552;28;20037;-61
2023/01/20 06:07:50;;;;;;;54.55;30.27;;;;;;;0.28;100.00;160647.53;5050624;28;20186;-61
2023/01/20 06:10:16;;;;;;;50.13;31.73;;;;;;;0.26;100.00;160642.16;5049195;28;20032;-61
2023/01/20 06:12:41;;;;;;;47.03;30.60;;;;;;;0.26;100.00;160642.16;5050706;28;20028;-61
2023/01/20 06:15:07;;;;;;;48.63;30.92;;;;;;;0.25;100.00;160638.16;5049416;28;20029;-60
2023/01/20 06:17:33;;;;;;;54.72;32.92;;;;;;;0.21;100.00;160627.47;5050488;28;20029;-61
2023/01/20 06:19:59;;;;;;;52.20;34.08;;;;;;;0.20;100.00;160626.09;5050317;28;20079;-61
2023/01/20 06:22:25;;;;;;;58.78;34.38;;;;;;;0.17;100.00;160616.72;5048899;28;20072;-61
2023/01/20 06:24:51;;;;;;;83.57;35.03;;;;;;;0.16;100.00;160615.41;5050351;28;20021;-61
2023/01/20 06:27:16;;;;;;;55.70;35.10;;;;;;;0.11;100.00;160603.31;5048518;28;20041;-61
2023/01/20 06:29:42;;;;;;;59.33;36.67;;;;;;;0.08;100.00;160593.94;5050167;28;20076;-61
2023/01/20 06:32:07;;;;;;;54.47;31.95;;;;;;;0.14;100.00;160611.38;5048935;28;20037;-61
2023/01/20 06:34:32;;;;;;;56.55;36.08;;;;;;;0.15;100.00;160614.03;5050164;28;20083;-61
2023/01/20 06:36:58;;;;;;;72.47;37.63;;;;;;;0.13;100.00;160607.34;5049203;28;20044;-61
2023/01/20 06:39:23;;;;;;;67.00;37.65;;;;;;;0.10;100.00;160600.63;5048196;28;20094;-61
2023/01/20 06:41:48;;;;;;;61.70;37.22;;;;;;;0.09;100.00;160596.63;5048251;28;20045;-61
2023/01/20 06:44:14;;;;;;;67.10;37.45;;;;;;;0.06;100.00;160588.56;5050120;28;20013;-61
2023/01/20 06:46:39;;;;;;;71.97;40.30;;;;;;;0.03;100.00;160580.56;5048639;28;20050;-63
2023/01/20 06:49:05;;;;;;;66.30;39.08;;;;;;;0.02;100.00;160579.19;5051916;28;20048;-63
2023/01/20 06:51:31;;;;;;;62.42;36.08;;;;;;;0.05;100.00;160585.88;5048223;28;20421;-62
2023/01/20 06:53:56;;;;;;;75.25;39.20;;;;;;;0.04;100.00;160583.25;5050003;28;20056;-61
2023/01/20 06:56:22;;;;;;;65.57;39.83;;;;;;;0.01;100.00;160575.19;5048736;28;20496;-61
2023/01/20 06:58:48;;;;;;;60.50;36.65;;;;;;;-0.01;100.00;160572.50;5048391;28;20032;-61
2023/01/20 07:01:19;;;;;;;64.20;37.88;;;;;;;-0.09;100.00;160551.06;5048446;28;20037;-61
2023/01/20 07:03:45;;;;;;;57.60;35.95;;;;;;;-0.02;100.00;160569.81;5041218;28;20083;-61
2023/01/20 07:06:27;;;;;;;66.15;34.67;;;;;;;0.01;100.00;160576.50;5062814;28;20041;-61
2023/01/20 07:08:53;;;;;;;63.70;38.70;;;;;;;0.01;100.00;160575.19;5070248;28;20045;-61
2023/01/20 07:11:19;;;;;;;64.80;38.83;;;;;;;0.02;100.00;160577.88;5068033;28;20040;-62
2023/01/20 07:13:44;;;;;;;62.20;34.92;;;;;;;0.00;100.00;160573.88;5062623;28;20021;-61
2023/01/20 07:16:10;;;;;;;65.05;37.40;;;;;;;0.00;100.00;160573.88;5048865;28;20075;-61
2023/01/20 07:18:35;;;;;;;60.78;33.95;;;;;;;-0.05;100.00;160561.81;5050272;28;20537;-61
2023/01/20 07:21:01;;;;;;;61.85;40.08;;;;;;;-0.10;100.00;160548.38;5048477;28;20033;-61
2023/01/20 07:23:27;;;;;;;73.78;37.80;;;;;;;-0.04;100.00;160564.44;5050040;28;20032;-63
2023/01/20 07:26:13;;;;;;;72.55;38.67;;;;;;;-0.08;100.00;160553.75;5048505;28;20078;-63
2023/01/20 07:28:39;;;;;;;64.43;34.60;;;;;;;-0.05;100.00;160560.44;5050249;28;20028;-62
2023/01/20 07:31:09;;;;;;;69.45;35.95;;;;;;;-0.01;100.00;160572.50;5048619;28;20041;-60
2023/01/20 07:33:35;;;;;;;67.00;38.58;;;;;;;-0.05;100.00;160561.81;5049333;28;20512;-61
2023/01/20 07:36:01;;;;;;;65.25;36.70;;;;;;;-0.01;100.00;160572.50;5048541;28;20045;-61
2023/01/20 07:38:27;;;;;;;66.85;38.85;;;;;;;-0.01;100.00;160572.50;5053197;28;20083;-62
2023/01/20 07:40:56;;;;;;;62.53;35.30;;;;;;;0.01;100.00;160575.19;5052046;28;20052;-61
2023/01/20 07:43:21;;;;;;;;;;;;;;;0.01;100.00;160575.19;5054070;28;20075;-61
2023/01/20 07:45:46;;;;;;;75.67;37.87;;;;;;;-0.01;100.00;160571.19;5052284;28;19917;-61
2023/01/20 07:48:12;;;;;;;71.68;38.45;;;;;;;0.00;100.00;160573.88;5053082;28;20467;-62
2023/01/20 07:50:37;;;;;;;64.55;36.20;;;;;;;-0.01;100.00;160571.19;5051710;28;20048;-64
2023/01/20 07:53:03;;;;;;;68.35;38.85;;;;;;;0.06;100.00;160588.56;5051998;28;20021;-64
2023/01/20 07:55:29;;;;;;;58.78;33.90;;;;;;;0.06;100.00;160588.56;5050462;28;20041;-64
2023/01/20 07:57:55;;;;;;;65.72;37.63;;;;;;;0.01;100.00;160575.19;5052268;28;20024;-62
2023/01/20 08:00:20;;;;;;;61.05;34.88;;;;;;;0.04;100.00;160584.56;5050732;28;20118;-61
2023/01/20 08:02:46;;;;;;;55.55;31.55;;;;;;;-0.10;100.00;160548.38;5053094;28;20148;-62
2023/01/20 08:05:11;;;;;;;59.00;33.97;;;;;;;-0.03;100.00;160567.13;5051119;28;20025;-61
2023/01/20 08:07:36;;;;;;;59.17;34.80;;;;;;;-0.05;100.00;160561.81;5053187;28;20416;-61
2023/01/20 08:10:02;;;;;;;63.38;32.42;;;;;;;0.02;100.00;160577.88;5053153;28;20050;-61
2023/01/20 08:12:29;;;;;;;64.82;34.22;;;;;;;0.05;100.00;160587.25;5051009;28;20041;-61
2023/01/20 08:14:54;;;;;;;60.35;36.25;;;;;;;-0.04;100.00;160563.13;5053331;28;20021;-61
2023/01/20 08:17:20;;;;;;;55.75;34.42;;;;;;;0.01;100.00;160575.19;5051442;28;20488;-61
2023/01/20 08:19:45;;;;;;;70.95;38.13;;;;;;;-0.05;100.00;160561.81;5052882;28;20017;-64
2023/01/20 08:22:10;;;;;;;61.95;38.33;;;;;;;-0.04;100.00;160564.44;5050953;28;20037;-64
2023/01/20 08:24:36;;;;;;;53.95;30.13;;;;;;;-0.01;100.00;160571.19;5053145;28;20033;-62
2023/01/20 08:27:01;;;;;;;67.55;35.42;;;;;;;0.05;100.00;160585.88;5050380;28;20048;-61
2023/01/20 08:29:26;;;;;;;63.50;37.58;;;;;;;0.06;100.00;160589.94;5052277;28;20021;-61
2023/01/20 08:31:52;;;;;;;63.20;37.70;;;;;;;0.07;100.00;160591.25;5050694;28;20053;-61
2023/01/20 08:34:17;;;;;;;61.40;34.55;;;;;;;0.03;100.00;160580.56;5051763;28;20112;-62
2023/01/20 08:36:43;;;;;;;57.58;35.25;;;;;;;0.03;100.00;160580.56;5050605;28;20037;-61
2023/01/20 08:39:12;;;;;;;60.38;36.28;;;;;;;0.03;100.00;160581.88;5052035;28;20158;-61
2023/01/20 08:41:40;;;;;;;73.03;37.42;;;;;;;0.07;100.00;160591.25;5050905;28;20091;-61
2023/01/20 08:44:06;;;;;;;55.47;34.05;;;;;;;0.08;100.00;160593.94;5052636;28;20036;-61
2023/01/20 08:46:33;;;;;;;69.13;35.90;;;;;;;0.11;100.00;160602.00;5050777;28;20037;-61
2023/01/20 08:48:58;;;;;;;58.75;34.60;;;;;;;0.11;100.00;160602.00;5050747;28;20020;-61
2023/01/20 08:51:30;;;;;;;68.63;35.08;;;;;;;0.10;100.00;160599.31;5049878;28;20511;-64
2023/01/20 08:53:56;;;;;;;53.67;31.17;;;;;;;0.09;100.00;160596.63;5052255;28;20103;-64
2023/01/20 08:56:22;;;;;;;61.92;35.97;;;;;;;0.06;100.00;160588.56;5050303;28;20115;-64
2023/01/20 08:58:48;;;;;;;60.42;34.92;;;;;;;0.06;100.00;160588.56;5051791;28;20036;-62
2023/01/20 09:01:16;;;;;;;57.78;34.65;;;;;;;0.04;100.00;160583.25;5050495;28;20033;-61
2023/01/20 09:03:42;;;;;;;47.83;30.40;;;;;;;0.02;100.00;160579.19;5052130;28;20036;-62
2023/01/20 09:06:09;;;;;;;50.63;33.40;;;;;;;0.03;100.00;160581.88;5038449;28;20150;-62
2023/01/20 09:08:36;;;;;;;63.60;33.97;;;;;;;0.09;100.00;160596.63;5029986;28;20081;-61
2023/01/20 09:11:09;;;;;;;59.10;34.75;;;;;;;0.10;100.00;160599.31;5037244;28;21550;-61
2023/01/20 09:13:35;;;;;;;48.03;32.53;;;;;;;0.09;100.00;160596.63;5051354;28;20116;-61
2023/01/20 09:16:02;;;;;;;58.55;36.85;;;;;;;0.08;100.00;160593.94;5049483;28;20048;-61
2023/01/20 09:18:29;;;;;;;50.97;33.95;;;;;;;0.18;100.00;160620.78;5048694;28;20052;-63
2023/01/20 09:20:57;;;;;;;55.50;35.17;;;;;;;0.21;100.00;160627.47;5050053;28;20112;-61
2023/01/20 09:23:23;;;;;;;57.58;38.35;;;;;;;0.24;100.00;160636.84;5051805;28;20040;-61
2023/01/20 09:25:48;;;;;;;64.97;38.47;;;;;;;0.30;100.00;160652.91;5050178;28;20400;-61
2023/01/20 09:28:13;;;;;;;54.80;36.00;;;;;;;0.27;100.00;160644.84;5050831;28;20024;-61
2023/01/20 09:30:39;;;;;;;66.97;37.63;;;;;;;0.29;100.00;160648.91;5050504;28;20041;-61
2023/01/20 09:33:04;;;;;;;54.65;32.58;;;;;;;0.38;100.00;160671.69;5050079;28;20380;-61
2023/01/20 09:35:29;;;;;;;55.95;35.65;;;;;;;0.39;100.00;160674.38;5050274;28;20049;-62
2023/01/20 09:44:15;;;;;;;52.90;34.55;;;;;;;0.35;100.00;160663.63;5045766;28;20039;-62
2023/01/20 09:47:18;;;;;;;60.60;35.17;;;;;;;0.38;100.00;160671.69;5038117;28;20382;-60
2023/01/20 09:53:16;;;;;;;56.60;34.40;;;;;;;0.41;100.00;160679.75;5040094;28;20138;-60
2023/01/20 09:55:53;;;;;;;50.83;33.00;;;;;;;0.46;100.00;160693.13;5040411;28;20036;-60
2023/01/20 09:58:58;;;;;;;60.10;33.05;;;;;;;0.53;100.00;160711.91;5043728;28;20025;-60
2023/01/20 10:01:33;;;;;;;53.97;36.15;;;;;;;0.50;100.00;160703.84;4986665;28;20031;-60
2023/01/20 10:04:12;;;;;;;61.28;36.67;;;;;;;0.57;100.00;160721.28;5039074;28;20412;-60
2023/01/20 10:06:43;;;;;;;58.88;34.70;;;;;;;0.67;100.00;160746.75;5041543;28;20057;-60
2023/01/20 10:09:21;;;;;;;56.05;31.38;;;;;;;0.75;100.00;160769.53;5043805;28;20102;-60
2023/01/20 10:11:50;;;;;;;46.85;30.83;;;;;;;0.85;100.00;160795.03;5045004;28;20096;-60
2023/01/20 10:14:18;;;;;;;;;;;;;;;0.88;100.00;160803.06;5041017;28;20040;-60
2023/01/20 10:16:48;;;;;;;58.40;38.90;;;;;;;0.90;100.00;160808.44;5046394;28;19917;-60
2023/01/20 10:19:20;;;;;;;60.65;38.13;;;;;;;0.97;100.00;160824.53;5049961;28;20585;-60
2023/01/20 10:22:31;;;;;;;66.05;41.47;;;;;;;1.04;100.00;160843.28;5047076;28;20119;-60
2023/01/20 10:25:06;;;;;;;61.78;34.67;;;;;;;1.07;100.00;160851.38;5038863;28;20424;-60
2023/01/20 10:27:34;;;;;;;57.83;35.83;;;;;;;1.13;100.00;160867.44;5045927;28;20127;-60
2023/01/20 10:30:10;;;;;;;47.03;34.47;;;;;;;1.15;100.00;160871.47;5050564;28;20379;-60
2023/01/20 10:32:39;;;;;;;54.83;33.22;;;;;;;1.12;100.00;160864.75;5028996;28;20076;-60
2023/01/20 10:35:17;;;;;;;;;;;;;;;1.18;100.00;160879.53;5036031;28;20113;-59
2023/01/20 10:37:42;;;;;;;44.30;26.10;;;;;;;1.09;100.00;160856.69;5049358;28;19955;-60
2023/01/20 10:40:16;;;;;;;54.60;37.35;;;;;;;1.07;100.00;160851.38;5047519;28;20067;-59
2023/01/20 10:42:48;;;;;;;52.13;32.67;;;;;;;1.12;100.00;160864.75;5029559;28;20087;-60
2023/01/20 10:45:26;;;;;;;49.78;31.60;;;;;;;1.17;100.00;160878.16;5029290;28;20515;-60
2023/01/20 10:48:21;;;;;;;63.13;32.28;;;;;;;0.95;100.00;160821.84;5044440;28;20024;-60
2023/01/20 10:51:14;;;;;;;56.22;32.95;;;;;;;1.03;100.00;160840.59;5043914;28;20055;-60
2023/01/20 10:53:50;;;;;;;52.63;34.03;;;;;;;1.11;100.00;160862.06;5048902;28;20033;-60
2023/01/20 10:56:27;;;;;;;51.90;35.38;;;;;;;1.18;100.00;160879.53;5048483;28;20635;-60
2023/01/20 10:58:52;;;;;;;59.47;35.67;;;;;;;1.10;100.00;160859.38;5049446;28;20059;-60
2023/01/20 11:01:18;;;;;;;54.45;35.55;;;;;;;1.11;100.00;160862.06;5038223;28;20038;-60
2023/01/20 11:03:46;;;;;;;54.58;33.92;;;;;;;1.03;100.00;160840.59;5030538;28;20053;-60
2023/01/20 11:06:25;;;;;;;53.28;32.13;;;;;;;1.02;100.00;160837.91;5037856;28;20037;-60
2023/01/20 11:08:51;;;;;;;57.20;36.42;;;;;;;1.03;100.00;160841.97;5044621;28;20518;-60
2023/01/20 11:11:19;;;;;;;47.03;30.50;;;;;;;1.10;100.00;160859.38;5047401;28;20083;-61
2023/01/20 11:13:45;;;;;;;50.20;33.15;;;;;;;1.21;100.00;160888.91;5053188;28;20083;-60
2023/01/20 11:16:29;;;;;;;51.85;32.88;;;;;;;1.27;100.00;160903.63;5051376;28;20488;-60
2023/01/20 11:19:06;;;;;;;59.13;32.58;;;;;;;1.25;100.00;160899.63;5052403;28;20112;-60
2023/01/20 11:21:35;;;;;;;45.13;31.17;;;;;;;1.32;100.00;160915.72;5049338;28;20464;-60
2023/01/20 11:24:01;;;;;;;52.38;34.13;;;;;;;1.32;100.00;160915.72;5053318;28;20100;-60
2023/01/20 11:26:34;;;;;;;49.45;31.75;;;;;;;1.31;100.00;160914.38;5052242;28;20045;-60